createdAt,value
2023-03-29T00:00:43.664Z,4.68
2023-03-29T00:01:38.829Z,4.67
2023-03-29T00:02:34.924Z,4.69
2023-03-29T00:03:30.069Z,4.70
2023-03-29T00:04:25.052Z,4.71
2023-03-29T00:05:20.756Z,4.74
2023-03-29T00:06:15.958Z,4.78
2023-03-29T00:07:11.229Z,4.80
2023-03-29T00:08:07.468Z,4.81
2023-03-29T00:09:02.497Z,4.81
2023-03-29T00:09:58.405Z,4.81
2023-03-29T00:10:53.534Z,4.78
2023-03-29T00:11:48.864Z,4.76
2023-03-29T00:12:44.484Z,4.73
2023-03-29T00:13:39.679Z,4.71
2023-03-29T00:14:35.441Z,4.71
2023-03-29T00:15:30.587Z,4.74
2023-03-29T00:16:25.910Z,4.74
2023-03-29T00:17:21.670Z,4.73
2023-03-29T00:18:17.028Z,4.67
2023-03-29T00:19:12.118Z,4.61
2023-03-29T00:20:08.503Z,4.59
2023-03-29T00:21:04.004Z,4.61
2023-03-29T00:21:59.542Z,4.63
2023-03-29T00:22:54.728Z,4.66
2023-03-29T00:23:49.927Z,4.67
2023-03-29T00:24:45.531Z,4.66
2023-03-29T00:25:40.731Z,4.63
2023-03-29T00:26:36.617Z,4.60
2023-03-29T00:27:31.763Z,4.58
2023-03-29T00:28:27.172Z,4.57
2023-03-29T00:29:22.728Z,4.58
2023-03-29T00:30:17.970Z,4.61
2023-03-29T00:31:13.170Z,4.63
2023-03-29T00:32:09.470Z,4.64
2023-03-29T00:33:04.867Z,4.64
2023-03-29T00:34:00.457Z,4.64
2023-03-29T00:34:55.608Z,4.65
2023-03-29T00:35:50.880Z,4.65
2023-03-29T00:36:45.886Z,4.67
2023-03-29T00:37:41.338Z,4.70
2023-03-29T00:38:37.136Z,4.66
2023-03-29T00:39:32.072Z,4.64
2023-03-29T00:40:27.212Z,4.61
2023-03-29T00:41:23.488Z,4.59
2023-03-29T00:42:18.672Z,4.60
2023-03-29T00:43:14.573Z,4.59
2023-03-29T00:44:09.620Z,4.58
2023-03-29T00:45:04.805Z,4.56
2023-03-29T00:46:00.745Z,4.53
2023-03-29T00:46:55.899Z,4.49
2023-03-29T00:47:51.952Z,4.50
2023-03-29T00:48:46.952Z,4.48
2023-03-29T00:49:42.169Z,4.45
2023-03-29T00:50:37.936Z,4.43
2023-03-29T00:51:33.134Z,4.45
2023-03-29T00:52:28.407Z,4.44
2023-03-29T00:53:23.474Z,4.45
2023-03-29T00:54:18.623Z,4.48
2023-03-29T00:55:13.686Z,4.47
2023-03-29T00:56:08.726Z,4.46
2023-03-29T00:57:07.604Z,4.45
2023-03-29T00:58:02.803Z,4.45
2023-03-29T00:58:57.868Z,4.46
2023-03-29T00:59:53.037Z,4.45
2023-03-29T01:00:48.087Z,4.46
2023-03-29T01:01:43.146Z,4.49
2023-03-29T01:02:38.275Z,4.51
2023-03-29T01:03:33.443Z,4.52
2023-03-29T01:04:28.303Z,4.50
2023-03-29T01:05:23.443Z,4.47
2023-03-29T01:06:18.516Z,4.48
2023-03-29T01:08:38.535Z,4.02
2023-03-29T01:11:00.740Z,3.97
2023-03-29T01:11:55.609Z,4.26
2023-03-29T01:12:50.743Z,4.40
2023-03-29T01:13:46.140Z,4.48
2023-03-29T01:14:40.996Z,4.52
2023-03-29T01:15:36.151Z,4.56
2023-03-29T01:16:31.327Z,4.58
2023-03-29T01:17:26.506Z,4.60
2023-03-29T01:18:21.650Z,4.62
2023-03-29T01:19:16.838Z,4.62
2023-03-29T01:20:11.982Z,4.62
2023-03-29T01:21:07.308Z,4.65
2023-03-29T01:22:02.336Z,4.70
2023-03-29T01:22:57.484Z,4.72
2023-03-29T01:23:52.803Z,4.73
2023-03-29T01:24:47.810Z,4.71
2023-03-29T01:25:42.961Z,4.70
2023-03-29T01:26:38.160Z,4.67
2023-03-29T01:27:33.314Z,4.67
2023-03-29T01:28:28.477Z,4.69
2023-03-29T01:29:23.790Z,4.69
2023-03-29T01:30:18.814Z,4.65
2023-03-29T01:31:14.079Z,4.66
2023-03-29T01:32:09.194Z,4.69
2023-03-29T01:33:04.222Z,4.75
2023-03-29T01:33:59.394Z,4.86
2023-03-29T01:34:54.525Z,5.00
2023-03-29T01:35:49.710Z,5.07
2023-03-29T01:36:44.769Z,5.02
2023-03-29T01:37:39.926Z,4.87
2023-03-29T01:38:35.062Z,4.73
2023-03-29T01:39:30.285Z,4.62
2023-03-29T01:40:25.439Z,4.56
2023-03-29T01:41:20.745Z,4.51
2023-03-29T01:42:15.741Z,4.50
2023-03-29T01:43:10.925Z,4.47
2023-03-29T01:44:06.233Z,4.48
2023-03-29T01:45:01.246Z,4.51
2023-03-29T01:45:56.416Z,4.54
2023-03-29T01:46:51.572Z,4.55
2023-03-29T01:47:46.753Z,4.58
2023-03-29T01:48:41.884Z,4.64
2023-03-29T01:49:37.235Z,4.69
2023-03-29T01:50:32.249Z,4.73
2023-03-29T01:51:27.516Z,4.77
2023-03-29T01:52:22.572Z,4.82
2023-03-29T01:53:17.707Z,4.87
2023-03-29T01:54:12.925Z,4.92
2023-03-29T01:55:08.064Z,4.94
2023-03-29T01:56:03.234Z,4.95
2023-03-29T01:56:58.462Z,4.94
2023-03-29T01:57:53.614Z,4.94
2023-03-29T01:58:48.758Z,4.90
2023-03-29T01:59:44.112Z,4.86
2023-03-29T02:00:39.140Z,4.84
2023-03-29T02:01:34.512Z,4.84
2023-03-29T02:02:29.690Z,4.85
2023-03-29T02:03:24.681Z,4.85
2023-03-29T02:04:19.716Z,4.83
2023-03-29T02:05:15.057Z,4.83
2023-03-29T02:06:09.923Z,4.82
2023-03-29T02:07:05.131Z,4.81
2023-03-29T02:08:00.470Z,4.80
2023-03-29T02:08:55.449Z,4.79
2023-03-29T02:09:50.638Z,4.81
2023-03-29T02:10:45.815Z,4.82
2023-03-29T02:11:41.128Z,4.83
2023-03-29T02:12:36.245Z,4.84
2023-03-29T02:13:31.312Z,4.87
2023-03-29T02:14:26.344Z,4.90
2023-03-29T02:15:24.173Z,4.88
2023-03-29T02:16:19.379Z,4.85
2023-03-29T02:17:14.507Z,4.84
2023-03-29T02:18:09.693Z,4.84
2023-03-29T02:19:04.853Z,4.84
2023-03-29T02:20:00.858Z,4.84
2023-03-29T02:20:55.850Z,4.85
2023-03-29T02:21:51.185Z,4.81
2023-03-29T02:22:46.793Z,4.77
2023-03-29T02:23:42.030Z,4.75
2023-03-29T02:24:37.779Z,4.73
2023-03-29T02:25:33.113Z,4.70
2023-03-29T02:26:28.276Z,4.63
2023-03-29T02:27:24.056Z,4.61
2023-03-29T02:28:19.208Z,4.63
2023-03-29T02:29:14.398Z,4.64
2023-03-29T02:30:10.688Z,4.65
2023-03-29T02:31:05.822Z,4.62
2023-03-29T02:32:01.541Z,4.63
2023-03-29T02:32:56.761Z,4.66
2023-03-29T02:33:51.830Z,4.64
2023-03-29T02:34:47.708Z,4.64
2023-03-29T02:35:43.168Z,4.64
2023-03-29T02:36:38.751Z,4.58
2023-03-29T02:37:33.873Z,4.55
2023-03-29T02:38:29.098Z,4.54
2023-03-29T02:39:24.817Z,4.54
2023-03-29T02:40:20.218Z,4.59
2023-03-29T02:41:15.216Z,4.65
2023-03-29T02:42:11.576Z,4.71
2023-03-29T02:43:06.719Z,4.81
2023-03-29T02:44:02.621Z,4.89
2023-03-29T02:44:57.778Z,4.96
2023-03-29T02:45:53.160Z,4.99
2023-03-29T02:46:48.811Z,5.00
2023-03-29T02:47:44.045Z,4.99
2023-03-29T02:48:39.876Z,4.99
2023-03-29T02:49:34.954Z,4.98
2023-03-29T02:50:30.265Z,4.90
2023-03-29T02:51:26.036Z,4.85
2023-03-29T02:52:21.248Z,4.86
2023-03-29T02:53:16.515Z,4.82
2023-03-29T02:54:12.783Z,4.82
2023-03-29T02:55:08.087Z,4.84
2023-03-29T02:56:03.976Z,4.86
2023-03-29T02:56:59.078Z,4.87
2023-03-29T02:57:54.465Z,4.84
2023-03-29T02:58:50.110Z,4.82
2023-03-29T02:59:45.282Z,4.81
2023-03-29T03:00:41.376Z,4.79
2023-03-29T03:01:36.411Z,4.77
2023-03-29T03:02:31.771Z,4.78
2023-03-29T03:03:27.511Z,4.81
2023-03-29T03:04:22.535Z,4.87
2023-03-29T03:05:17.686Z,4.95
2023-03-29T03:06:14.291Z,5.01
2023-03-29T03:07:09.226Z,5.02
2023-03-29T03:08:05.126Z,5.04
2023-03-29T03:09:00.259Z,5.06
2023-03-29T03:09:55.447Z,5.07
2023-03-29T03:10:51.328Z,5.06
2023-03-29T03:11:46.434Z,5.05
2023-03-29T03:12:42.161Z,5.06
2023-03-29T03:13:37.337Z,5.06
2023-03-29T03:14:32.551Z,5.04
2023-03-29T03:15:28.433Z,4.99
2023-03-29T03:16:23.887Z,4.95
2023-03-29T03:17:19.023Z,4.90
2023-03-29T03:18:15.314Z,4.87
2023-03-29T03:19:10.533Z,4.87
2023-03-29T03:20:05.742Z,4.86
2023-03-29T03:21:01.277Z,4.86
2023-03-29T03:21:57.520Z,4.86
2023-03-29T03:22:52.713Z,4.90
2023-03-29T03:23:47.872Z,4.94
2023-03-29T03:24:44.309Z,5.00
2023-03-29T03:25:39.492Z,5.05
2023-03-29T03:26:35.410Z,5.08
2023-03-29T03:27:30.545Z,5.10
2023-03-29T03:28:25.756Z,5.10
2023-03-29T03:29:21.480Z,5.11
2023-03-29T03:30:16.735Z,5.11
2023-03-29T03:31:12.662Z,5.12
2023-03-29T03:32:07.917Z,5.14
2023-03-29T03:33:03.019Z,5.17
2023-03-29T03:33:58.915Z,5.19
2023-03-29T03:34:54.091Z,5.21
2023-03-29T03:35:49.425Z,5.24
2023-03-29T03:36:45.900Z,5.28
2023-03-29T03:37:40.926Z,5.30
2023-03-29T03:38:36.113Z,5.29
2023-03-29T03:39:31.362Z,5.19
2023-03-29T03:40:27.845Z,5.13
2023-03-29T03:41:22.191Z,5.09
2023-03-29T03:42:17.553Z,5.07
2023-03-29T03:43:12.604Z,5.01
2023-03-29T03:44:08.320Z,4.98
2023-03-29T03:45:03.483Z,5.00
2023-03-29T03:45:58.639Z,4.99
2023-03-29T03:46:53.974Z,5.02
2023-03-29T03:47:49.044Z,5.00
2023-03-29T03:48:44.362Z,5.00
2023-03-29T03:49:40.656Z,4.99
2023-03-29T03:50:35.814Z,5.02
2023-03-29T03:51:31.139Z,5.04
2023-03-29T03:52:26.374Z,5.07
2023-03-29T03:53:21.424Z,5.10
2023-03-29T03:54:17.441Z,5.13
2023-03-29T03:55:12.594Z,5.14
2023-03-29T03:56:07.808Z,5.15
2023-03-29T03:57:03.246Z,5.15
2023-03-29T03:57:58.146Z,5.16
2023-03-29T03:58:53.444Z,5.15
2023-03-29T03:59:49.477Z,5.14
2023-03-29T04:00:44.641Z,5.14
2023-03-29T04:01:39.831Z,5.08
2023-03-29T04:02:35.133Z,5.03
2023-03-29T04:03:30.206Z,5.01
2023-03-29T04:04:25.332Z,4.97
2023-03-29T04:05:20.467Z,4.91
2023-03-29T04:06:15.503Z,4.86
2023-03-29T04:07:10.775Z,4.86
2023-03-29T04:08:05.827Z,4.85
2023-03-29T04:09:00.888Z,4.83
2023-03-29T04:09:55.901Z,4.87
2023-03-29T04:10:50.954Z,4.90
2023-03-29T04:11:45.987Z,4.89
2023-03-29T04:12:41.217Z,4.90
2023-03-29T04:13:36.201Z,4.93
2023-03-29T04:14:31.093Z,4.95
2023-03-29T04:15:26.130Z,4.96
2023-03-29T04:16:21.215Z,4.98
2023-03-29T04:17:16.215Z,4.99
2023-03-29T04:18:11.334Z,5.03
2023-03-29T04:19:06.291Z,5.05
2023-03-29T04:20:01.479Z,5.06
2023-03-29T04:20:56.396Z,5.09
2023-03-29T04:21:54.703Z,5.13
2023-03-29T04:22:49.655Z,5.14
2023-03-29T04:23:44.726Z,5.14
2023-03-29T04:24:40.033Z,5.17
2023-03-29T04:25:35.086Z,5.19
2023-03-29T04:26:30.170Z,5.19
2023-03-29T04:27:25.395Z,5.17
2023-03-29T04:28:20.384Z,5.17
2023-03-29T04:29:15.439Z,5.21
2023-03-29T04:30:10.504Z,5.19
2023-03-29T04:31:05.769Z,5.15
2023-03-29T04:32:00.754Z,5.12
2023-03-29T04:32:55.866Z,5.08
2023-03-29T04:33:55.062Z,5.08
2023-03-29T04:34:50.074Z,5.09
2023-03-29T04:35:45.411Z,5.05
2023-03-29T04:36:40.482Z,5.03
2023-03-29T04:37:35.326Z,5.05
2023-03-29T04:38:30.339Z,5.09
2023-03-29T04:39:25.433Z,5.11
2023-03-29T04:40:20.495Z,5.14
2023-03-29T04:41:15.674Z,5.17
2023-03-29T04:42:10.983Z,5.18
2023-03-29T04:43:05.958Z,5.19
2023-03-29T04:44:01.046Z,5.18
2023-03-29T04:44:56.274Z,5.20
2023-03-29T04:45:55.624Z,5.23
2023-03-29T04:46:50.759Z,5.24
2023-03-29T04:47:45.877Z,5.24
2023-03-29T04:48:40.839Z,5.28
2023-03-29T04:49:35.899Z,5.36
2023-03-29T04:50:30.988Z,5.44
2023-03-29T04:51:26.072Z,5.48
2023-03-29T04:52:23.203Z,5.46
2023-03-29T04:53:16.440Z,5.42
2023-03-29T04:54:11.535Z,5.41
2023-03-29T04:55:06.527Z,5.40
2023-03-29T04:56:01.677Z,5.38
2023-03-29T04:56:56.834Z,5.35
2023-03-29T04:57:51.927Z,5.38
2023-03-29T04:58:47.170Z,5.39
2023-03-29T04:59:42.980Z,5.39
2023-03-29T05:00:38.093Z,5.38
2023-03-29T05:01:33.986Z,5.36
2023-03-29T05:02:29.100Z,5.36
2023-03-29T05:03:24.551Z,5.37
2023-03-29T05:04:20.120Z,5.40
2023-03-29T05:05:15.478Z,5.46
2023-03-29T05:06:10.607Z,5.49
2023-03-29T05:07:07.317Z,5.50
2023-03-29T05:08:02.415Z,5.52
2023-03-29T05:08:58.178Z,5.59
2023-03-29T05:09:53.472Z,5.62
2023-03-29T05:10:48.690Z,5.65
2023-03-29T05:11:44.741Z,5.64
2023-03-29T05:12:39.895Z,5.65
2023-03-29T05:13:35.760Z,5.66
2023-03-29T05:14:31.010Z,5.65
2023-03-29T05:15:26.496Z,5.65
2023-03-29T05:16:22.405Z,5.61
2023-03-29T05:17:17.620Z,5.62
2023-03-29T05:18:12.920Z,5.61
2023-03-29T05:19:08.170Z,5.60
2023-03-29T05:20:04.159Z,5.61
2023-03-29T05:20:59.512Z,5.59
2023-03-29T05:21:54.873Z,5.57
2023-03-29T05:22:50.528Z,5.55
2023-03-29T05:23:46.057Z,5.57
2023-03-29T05:24:41.141Z,5.58
2023-03-29T05:25:37.647Z,5.58
2023-03-29T05:26:33.034Z,5.58
2023-03-29T05:27:28.707Z,5.62
2023-03-29T05:28:24.067Z,5.65
2023-03-29T05:29:19.377Z,5.68
2023-03-29T05:30:15.145Z,5.70
2023-03-29T05:31:10.458Z,5.70
2023-03-29T05:32:06.229Z,5.73
2023-03-29T05:33:01.678Z,5.73
2023-03-29T05:33:56.946Z,5.69
2023-03-29T05:34:52.762Z,5.69
2023-03-29T05:35:48.023Z,5.75
2023-03-29T05:36:43.570Z,5.79
2023-03-29T05:37:38.683Z,5.81
2023-03-29T05:38:34.136Z,5.82
2023-03-29T05:39:29.539Z,5.84
2023-03-29T05:40:24.703Z,5.88
2023-03-29T05:41:19.894Z,5.92
2023-03-29T05:42:14.951Z,5.98
2023-03-29T05:43:10.131Z,6.03
2023-03-29T05:44:05.191Z,6.04
2023-03-29T05:45:00.255Z,6.08
2023-03-29T05:45:55.644Z,6.10
2023-03-29T05:46:50.608Z,6.13
2023-03-29T05:47:45.663Z,6.13
2023-03-29T05:48:40.623Z,6.15
2023-03-29T05:49:35.916Z,6.15
2023-03-29T05:50:31.186Z,6.16
2023-03-29T05:51:26.178Z,6.14
2023-03-29T05:52:21.140Z,6.14
2023-03-29T05:53:16.323Z,6.13
2023-03-29T05:54:11.319Z,6.14
2023-03-29T05:55:07.037Z,6.13
2023-03-29T05:56:02.602Z,6.16
2023-03-29T05:56:57.925Z,6.18
2023-03-29T05:57:54.083Z,6.20
2023-03-29T05:58:49.560Z,6.21
2023-03-29T05:59:44.885Z,6.23
2023-03-29T06:00:40.346Z,6.24
2023-03-29T06:01:35.508Z,6.23
2023-03-29T06:02:30.998Z,6.24
2023-03-29T06:03:26.274Z,6.24
2023-03-29T06:04:21.665Z,6.23
2023-03-29T06:05:16.892Z,6.24
2023-03-29T06:06:12.513Z,6.24
2023-03-29T06:07:07.619Z,6.24
2023-03-29T06:08:03.080Z,6.19
2023-03-29T06:08:58.459Z,6.22
2023-03-29T06:09:53.935Z,6.21
2023-03-29T06:10:49.217Z,6.21
2023-03-29T06:11:44.659Z,6.24
2023-03-29T06:12:40.082Z,6.24
2023-03-29T06:13:35.447Z,6.23
2023-03-29T06:14:30.474Z,6.21
2023-03-29T06:15:25.549Z,6.25
2023-03-29T06:16:20.576Z,6.31
2023-03-29T06:17:15.674Z,6.37
2023-03-29T06:18:10.756Z,6.39
2023-03-29T06:19:05.858Z,6.43
2023-03-29T06:20:00.800Z,6.47
2023-03-29T06:20:55.898Z,6.47
2023-03-29T06:21:50.815Z,6.50
2023-03-29T06:22:45.884Z,6.56
2023-03-29T06:23:41.425Z,6.59
2023-03-29T06:24:36.773Z,6.59
2023-03-29T06:25:32.344Z,6.62
2023-03-29T06:26:27.999Z,6.63
2023-03-29T06:27:23.040Z,6.59
2023-03-29T06:28:18.377Z,6.58
2023-03-29T06:29:13.794Z,6.59
2023-03-29T06:30:09.282Z,6.57
2023-03-29T06:31:04.566Z,6.51
2023-03-29T06:31:59.701Z,6.51
2023-03-29T06:32:55.096Z,6.51
2023-03-29T06:33:50.337Z,6.50
2023-03-29T06:34:45.688Z,6.49
2023-03-29T06:35:41.087Z,6.45
2023-03-29T06:36:36.584Z,6.39
2023-03-29T06:37:31.738Z,6.36
2023-03-29T06:38:27.059Z,6.40
2023-03-29T06:39:22.548Z,6.43
2023-03-29T06:40:17.948Z,6.45
2023-03-29T06:41:13.456Z,6.44
2023-03-29T06:42:20.226Z,6.47
2023-03-29T06:43:06.474Z,6.43
2023-03-29T06:44:00.780Z,6.45
2023-03-29T06:44:56.107Z,6.49
2023-03-29T06:45:51.599Z,6.51
2023-03-29T06:46:47.342Z,6.52
2023-03-29T06:47:42.644Z,6.57
2023-03-29T06:48:38.297Z,6.63
2023-03-29T06:49:33.730Z,6.68
2023-03-29T06:50:29.340Z,6.67
2023-03-29T06:51:24.695Z,6.68
2023-03-29T06:52:20.013Z,6.72
2023-03-29T06:53:15.130Z,6.73
2023-03-29T06:54:10.071Z,6.76
2023-03-29T06:55:05.217Z,6.74
2023-03-29T06:56:01.940Z,6.76
2023-03-29T06:56:56.864Z,6.80
2023-03-29T06:57:51.904Z,6.85
2023-03-29T06:58:46.975Z,6.89
2023-03-29T06:59:42.092Z,6.89
2023-03-29T07:00:37.253Z,6.86
2023-03-29T07:01:32.304Z,6.87
2023-03-29T07:02:27.276Z,6.87
2023-03-29T07:03:22.417Z,6.85
2023-03-29T07:04:17.643Z,6.78
2023-03-29T07:05:12.469Z,6.69
2023-03-29T07:06:07.676Z,6.70
2023-03-29T07:07:02.629Z,6.68
2023-03-29T07:07:57.702Z,6.68
2023-03-29T07:08:52.797Z,6.71
2023-03-29T07:09:47.967Z,6.75
2023-03-29T07:10:43.241Z,6.80
2023-03-29T07:11:38.151Z,6.85
2023-03-29T07:12:33.201Z,6.91
2023-03-29T07:13:28.264Z,6.94
2023-03-29T07:14:23.351Z,6.99
2023-03-29T07:15:18.439Z,7.02
2023-03-29T07:16:14.284Z,7.06
2023-03-29T07:17:09.520Z,7.07
2023-03-29T07:18:05.110Z,7.13
2023-03-29T07:19:00.447Z,7.20
2023-03-29T07:19:55.900Z,7.15
2023-03-29T07:20:51.393Z,7.16
2023-03-29T07:21:46.602Z,7.23
2023-03-29T07:22:42.033Z,7.29
2023-03-29T07:23:37.374Z,7.33
2023-03-29T07:24:32.681Z,7.38
2023-03-29T07:25:28.044Z,7.43
2023-03-29T07:26:28.742Z,7.43
2023-03-29T07:27:19.204Z,7.44
2023-03-29T07:28:13.220Z,7.47
2023-03-29T07:29:08.273Z,7.50
2023-03-29T07:30:03.315Z,7.54
2023-03-29T07:30:58.469Z,7.60
2023-03-29T07:31:53.368Z,7.66
2023-03-29T07:32:48.495Z,7.68
2023-03-29T07:33:43.674Z,7.69
2023-03-29T07:34:38.648Z,7.70
2023-03-29T07:35:35.776Z,7.71
2023-03-29T07:36:31.049Z,7.68
2023-03-29T07:37:26.311Z,7.72
2023-03-29T07:38:21.831Z,7.63
2023-03-29T07:39:17.132Z,7.58
2023-03-29T07:40:12.724Z,7.62
2023-03-29T07:41:08.182Z,7.68
2023-03-29T07:42:03.369Z,7.72
2023-03-29T07:42:58.843Z,7.73
2023-03-29T07:43:54.186Z,7.77
2023-03-29T07:44:49.470Z,7.83
2023-03-29T07:45:45.049Z,7.88
2023-03-29T07:46:40.678Z,7.91
2023-03-29T07:47:36.048Z,7.93
2023-03-29T07:48:31.329Z,7.96
2023-03-29T07:49:26.559Z,7.99
2023-03-29T07:50:21.559Z,8.03
2023-03-29T07:51:16.815Z,8.06
2023-03-29T07:52:11.655Z,8.07
2023-03-29T07:53:06.759Z,8.07
2023-03-29T07:54:01.829Z,8.09
2023-03-29T07:54:56.888Z,8.11
2023-03-29T07:55:52.062Z,8.09
2023-03-29T07:56:47.031Z,8.05
2023-03-29T07:57:42.061Z,8.01
2023-03-29T07:58:38.437Z,8.00
2023-03-29T07:59:33.427Z,8.03
2023-03-29T08:00:28.838Z,7.97
2023-03-29T08:01:23.755Z,7.92
2023-03-29T08:02:18.816Z,7.95
2023-03-29T08:03:14.001Z,8.00
2023-03-29T08:04:08.986Z,8.05
2023-03-29T08:05:04.148Z,8.05
2023-03-29T08:05:59.646Z,8.08
2023-03-29T08:06:54.013Z,8.13
2023-03-29T08:07:49.087Z,8.18
2023-03-29T08:08:44.108Z,8.23
2023-03-29T08:09:39.171Z,8.25
2023-03-29T08:10:34.296Z,8.26
2023-03-29T08:11:29.349Z,8.25
2023-03-29T08:12:25.081Z,8.25
2023-03-29T08:13:19.621Z,8.29
2023-03-29T08:14:14.921Z,8.29
2023-03-29T08:15:10.451Z,8.26
2023-03-29T08:16:05.650Z,8.32
2023-03-29T08:17:01.351Z,8.40
2023-03-29T08:17:56.839Z,8.46
2023-03-29T08:18:52.240Z,8.51
2023-03-29T08:19:51.154Z,8.49
2023-03-29T08:20:43.177Z,8.53
2023-03-29T08:21:38.399Z,8.59
2023-03-29T08:22:33.810Z,8.67
2023-03-29T08:23:29.139Z,8.71
2023-03-29T08:24:24.215Z,8.74
2023-03-29T08:25:19.390Z,8.78
2023-03-29T08:26:14.389Z,8.83
2023-03-29T08:27:09.483Z,8.81
2023-03-29T08:28:04.435Z,8.81
2023-03-29T08:28:59.668Z,8.85
2023-03-29T08:29:54.563Z,8.87
2023-03-29T08:30:50.711Z,8.91
2023-03-29T08:31:45.688Z,8.89
2023-03-29T08:32:40.653Z,8.93
2023-03-29T08:33:35.617Z,9.00
2023-03-29T08:34:30.699Z,9.01
2023-03-29T08:35:26.024Z,9.03
2023-03-29T08:36:20.867Z,9.04
2023-03-29T08:37:15.901Z,9.08
2023-03-29T08:38:11.047Z,9.13
2023-03-29T08:39:06.151Z,9.18
2023-03-29T08:40:01.265Z,9.22
2023-03-29T08:40:56.332Z,9.20
2023-03-29T08:41:51.433Z,9.21
2023-03-29T08:42:46.485Z,9.26
2023-03-29T08:43:41.908Z,9.30
2023-03-29T08:44:37.282Z,9.31
2023-03-29T08:45:32.813Z,9.25
2023-03-29T08:46:35.071Z,9.24
2023-03-29T08:47:26.846Z,9.27
2023-03-29T08:48:21.079Z,9.31
2023-03-29T08:49:16.494Z,9.36
2023-03-29T08:50:11.994Z,9.38
2023-03-29T08:51:09.925Z,9.40
2023-03-29T08:52:02.922Z,9.39
2023-03-29T08:52:58.192Z,9.40
2023-03-29T08:53:53.164Z,9.48
2023-03-29T08:54:48.254Z,9.54
2023-03-29T08:55:43.364Z,9.62
2023-03-29T08:56:38.391Z,9.71
2023-03-29T08:57:33.422Z,9.80
2023-03-29T08:58:28.497Z,9.88
2023-03-29T08:59:23.487Z,9.95
2023-03-29T09:00:18.699Z,9.99
2023-03-29T09:01:13.867Z,9.99
2023-03-29T09:02:08.775Z,10.04
2023-03-29T09:03:03.880Z,10.01
2023-03-29T09:03:59.081Z,9.96
2023-03-29T09:04:53.923Z,9.98
2023-03-29T09:05:49.111Z,9.99
2023-03-29T09:06:48.427Z,9.95
2023-03-29T09:07:43.821Z,9.90
2023-03-29T09:08:39.177Z,9.91
2023-03-29T09:09:34.537Z,9.92
2023-03-29T09:10:30.192Z,9.93
2023-03-29T09:11:25.748Z,9.96
2023-03-29T09:12:21.070Z,9.95
2023-03-29T09:13:16.435Z,9.93
2023-03-29T09:14:11.892Z,9.90
2023-03-29T09:15:07.037Z,9.78
2023-03-29T09:16:02.459Z,9.73
2023-03-29T09:16:58.112Z,9.73
2023-03-29T09:17:53.234Z,9.75
2023-03-29T09:18:48.607Z,9.78
2023-03-29T09:19:43.956Z,9.77
2023-03-29T09:20:39.776Z,9.76
2023-03-29T09:21:34.934Z,9.80
2023-03-29T09:22:30.233Z,9.83
2023-03-29T09:23:25.350Z,9.82
2023-03-29T09:24:20.412Z,9.80
2023-03-29T09:25:15.522Z,9.77
2023-03-29T09:26:10.852Z,9.81
2023-03-29T09:27:05.698Z,9.83
2023-03-29T09:28:00.754Z,9.80
2023-03-29T09:28:55.821Z,9.80
2023-03-29T09:29:53.213Z,9.82
2023-03-29T09:30:48.443Z,9.84
2023-03-29T09:31:43.300Z,9.83
2023-03-29T09:32:38.501Z,9.83
2023-03-29T09:33:33.433Z,9.85
2023-03-29T09:34:28.585Z,9.94
2023-03-29T09:35:23.642Z,10.01
2023-03-29T09:36:18.786Z,10.07
2023-03-29T09:37:13.692Z,10.06
2023-03-29T09:38:08.706Z,10.10
2023-03-29T09:39:03.779Z,10.09
2023-03-29T09:39:58.843Z,10.02
2023-03-29T09:40:53.904Z,10.10
2023-03-29T09:41:49.381Z,10.17
2023-03-29T09:42:44.822Z,10.14
2023-03-29T09:43:40.102Z,10.21
2023-03-29T09:44:35.567Z,10.33
2023-03-29T09:45:31.022Z,10.35
2023-03-29T09:46:26.470Z,10.43
2023-03-29T09:47:22.030Z,10.50
2023-03-29T09:48:17.469Z,10.58
2023-03-29T09:49:13.692Z,10.59
2023-03-29T09:50:16.643Z,10.63
2023-03-29T09:51:05.132Z,10.68
2023-03-29T09:51:59.605Z,10.76
2023-03-29T09:52:58.396Z,10.82
2023-03-29T09:53:54.048Z,10.86
2023-03-29T09:54:49.353Z,10.91
2023-03-29T09:55:44.979Z,10.93
2023-03-29T09:56:40.456Z,10.90
2023-03-29T09:57:35.883Z,10.81
2023-03-29T09:58:31.314Z,10.82
2023-03-29T09:59:26.735Z,10.87
2023-03-29T10:00:22.346Z,10.87
2023-03-29T10:01:17.743Z,10.87
2023-03-29T10:02:13.154Z,10.92
2023-03-29T10:03:10.579Z,10.91
2023-03-29T10:04:04.098Z,10.91
2023-03-29T10:04:59.583Z,10.85
2023-03-29T10:05:55.330Z,10.88
2023-03-29T10:06:50.611Z,10.91
2023-03-29T10:07:46.036Z,11.00
2023-03-29T10:08:41.428Z,11.07
2023-03-29T10:09:36.886Z,11.12
2023-03-29T10:10:32.451Z,11.23
2023-03-29T10:11:27.683Z,11.38
2023-03-29T10:12:23.159Z,11.29
2023-03-29T10:13:18.673Z,11.31
2023-03-29T10:14:14.119Z,11.35
2023-03-29T10:15:26.692Z,11.27
2023-03-29T10:16:10.141Z,11.24
2023-03-29T10:17:04.473Z,11.35
2023-03-29T10:17:59.864Z,11.54
2023-03-29T10:18:55.179Z,11.68
2023-03-29T10:19:50.580Z,11.88
2023-03-29T10:20:45.966Z,12.05
2023-03-29T10:21:41.327Z,12.06
2023-03-29T10:22:36.766Z,12.11
2023-03-29T10:23:32.250Z,12.14
2023-03-29T10:24:27.280Z,12.18
2023-03-29T10:25:22.332Z,12.22
2023-03-29T10:26:17.524Z,12.45
2023-03-29T10:27:12.400Z,12.58
2023-03-29T10:28:07.505Z,12.49
2023-03-29T10:29:02.596Z,12.31
2023-03-29T10:29:57.596Z,12.18
2023-03-29T10:30:52.817Z,12.04
2023-03-29T10:31:47.768Z,11.98
2023-03-29T10:32:42.870Z,11.87
2023-03-29T10:33:37.942Z,11.97
2023-03-29T10:34:32.980Z,12.15
2023-03-29T10:35:28.164Z,12.21
2023-03-29T10:36:23.654Z,12.12
2023-03-29T10:37:19.619Z,12.06
2023-03-29T10:38:14.714Z,12.05
2023-03-29T10:39:10.240Z,11.91
2023-03-29T10:40:06.097Z,11.98
2023-03-29T10:41:01.876Z,12.00
2023-03-29T10:41:57.239Z,11.96
2023-03-29T10:42:52.562Z,11.89
2023-03-29T10:43:47.998Z,11.84
2023-03-29T10:44:43.754Z,11.92
2023-03-29T10:45:39.210Z,12.03
2023-03-29T10:46:34.849Z,12.17
2023-03-29T10:47:31.088Z,12.38
2023-03-29T10:48:26.658Z,12.49
2023-03-29T10:49:22.425Z,12.67
2023-03-29T10:50:17.907Z,12.83
2023-03-29T10:51:13.530Z,13.12
2023-03-29T10:52:09.252Z,13.22
2023-03-29T10:53:04.746Z,13.27
2023-03-29T10:54:00.610Z,13.34
2023-03-29T10:54:55.875Z,13.40
2023-03-29T10:55:51.356Z,13.34
2023-03-29T10:56:47.226Z,13.15
2023-03-29T10:57:42.617Z,12.82
2023-03-29T10:58:38.134Z,12.75
2023-03-29T10:59:34.523Z,12.69
2023-03-29T11:00:29.999Z,12.70
2023-03-29T11:01:26.197Z,12.70
2023-03-29T11:02:21.650Z,12.74
2023-03-29T11:03:18.803Z,12.81
2023-03-29T11:04:12.757Z,12.89
2023-03-29T11:05:08.202Z,13.00
2023-03-29T11:06:04.241Z,13.07
2023-03-29T11:06:59.439Z,13.13
2023-03-29T11:07:54.939Z,13.19
2023-03-29T11:08:50.804Z,13.26
2023-03-29T11:09:46.005Z,13.31
2023-03-29T11:10:41.526Z,13.35
2023-03-29T11:11:37.899Z,13.32
2023-03-29T11:12:33.220Z,13.24
2023-03-29T11:13:29.155Z,13.11
2023-03-29T11:14:24.665Z,13.18
2023-03-29T11:15:20.144Z,13.29
2023-03-29T11:16:16.071Z,13.43
2023-03-29T11:17:11.439Z,13.41
2023-03-29T11:18:07.421Z,13.29
2023-03-29T11:19:02.749Z,13.33
2023-03-29T11:19:58.274Z,13.41
2023-03-29T11:20:53.852Z,13.45
2023-03-29T11:21:49.278Z,13.55
2023-03-29T11:22:44.784Z,13.70
2023-03-29T11:23:41.104Z,13.85
2023-03-29T11:24:36.751Z,14.00
2023-03-29T11:25:32.768Z,14.12
2023-03-29T11:26:27.873Z,14.24
2023-03-29T11:27:23.229Z,14.23
2023-03-29T11:28:18.698Z,13.93
2023-03-29T11:29:14.428Z,13.69
2023-03-29T11:30:09.964Z,13.64
2023-03-29T11:31:06.033Z,13.75
2023-03-29T11:32:01.338Z,13.79
2023-03-29T11:32:56.821Z,13.94
2023-03-29T11:33:52.397Z,14.08
2023-03-29T11:34:48.540Z,14.14
2023-03-29T11:35:44.034Z,14.09
2023-03-29T11:36:39.820Z,13.86
2023-03-29T11:37:35.156Z,13.82
2023-03-29T11:38:30.747Z,13.83
2023-03-29T11:39:26.688Z,13.90
2023-03-29T11:40:22.318Z,13.95
2023-03-29T11:41:18.080Z,14.01
2023-03-29T11:42:13.218Z,14.08
2023-03-29T11:43:08.758Z,14.14
2023-03-29T11:44:04.304Z,14.07
2023-03-29T11:44:59.885Z,14.09
2023-03-29T11:45:55.928Z,14.16
2023-03-29T11:46:51.384Z,14.13
2023-03-29T11:47:46.917Z,14.15
2023-03-29T11:48:42.588Z,14.25
2023-03-29T11:49:38.020Z,14.26
2023-03-29T11:50:36.037Z,14.33
2023-03-29T11:51:29.297Z,14.36
2023-03-29T11:52:24.808Z,14.43
2023-03-29T11:53:20.261Z,14.22
2023-03-29T11:54:16.451Z,14.09
2023-03-29T11:55:12.002Z,14.06
2023-03-29T11:56:07.885Z,14.08
2023-03-29T11:57:03.422Z,14.08
2023-03-29T11:57:58.800Z,14.06
2023-03-29T11:58:54.529Z,14.05
2023-03-29T11:59:50.068Z,14.06
2023-03-29T12:00:46.238Z,14.09
2023-03-29T12:01:41.367Z,14.02
2023-03-29T12:02:36.872Z,13.93
2023-03-29T12:03:32.621Z,13.92
2023-03-29T12:04:28.225Z,13.82
2023-03-29T12:05:23.783Z,13.81
2023-03-29T12:06:19.841Z,13.78
2023-03-29T12:07:15.365Z,13.82
2023-03-29T12:08:11.337Z,13.90
2023-03-29T12:09:06.576Z,13.99
2023-03-29T12:10:02.225Z,14.10
2023-03-29T12:10:57.964Z,14.17
2023-03-29T12:11:53.280Z,14.12
2023-03-29T12:12:49.166Z,14.02
2023-03-29T12:13:44.540Z,13.92
2023-03-29T12:14:40.213Z,13.84